sensor_id;sensor_type;location;lat;lon;timestamp;temperature;humidity
6486;DHT22;3276;48.490;9.222;2023-07-22T00:00:59;13.00;18.80
6486;DHT22;3276;48.490;9.222;2023-07-22T00:03:24;13.00;18.70
6486;DHT22;3276;48.490;9.222;2023-07-22T00:06:05;13.00;18.70
6486;DHT22;3276;48.490;9.222;2023-07-22T00:08:32;13.00;18.80
6486;DHT22;3276;48.490;9.222;2023-07-22T00:10:58;13.00;18.80
6486;DHT22;3276;48.490;9.222;2023-07-22T00:13:23;13.00;18.70
6486;DHT22;3276;48.490;9.222;2023-07-22T00:15:49;13.00;18.80
6486;DHT22;3276;48.490;9.222;2023-07-22T00:18:15;13.00;19.00
6486;DHT22;3276;48.490;9.222;2023-07-22T00:20:41;13.00;19.00
6486;DHT22;3276;48.490;9.222;2023-07-22T00:23:07;13.00;18.80
6486;DHT22;3276;48.490;9.222;2023-07-22T00:25:32;13.00;19.10
6486;DHT22;3276;48.490;9.222;2023-07-22T00:27:58;13.00;19.60
6486;DHT22;3276;48.490;9.222;2023-07-22T00:30:23;13.00;19.10
6486;DHT22;3276;48.490;9.222;2023-07-22T00:32:50;13.00;19.10
6486;DHT22;3276;48.490;9.222;2023-07-22T00:35:16;12.90;19.50
6486;DHT22;3276;48.490;9.222;2023-07-22T00:37:41;12.90;19.40
6486;DHT22;3276;48.490;9.222;2023-07-22T00:40:07;13.00;19.50
6486;DHT22;3276;48.490;9.222;2023-07-22T00:42:37;13.00;19.00
6486;DHT22;3276;48.490;9.222;2023-07-22T00:45:03;13.00;19.20
6486;DHT22;3276;48.490;9.222;2023-07-22T00:47:29;13.00;19.70
6486;DHT22;3276;48.490;9.222;2023-07-22T00:49:55;12.90;19.40
6486;DHT22;3276;48.490;9.222;2023-07-22T00:52:21;12.90;19.70
6486;DHT22;3276;48.490;9.222;2023-07-22T00:54:46;12.90;19.50
6486;DHT22;3276;48.490;9.222;2023-07-22T00:57:12;12.90;19.50
6486;DHT22;3276;48.490;9.222;2023-07-22T00:59:39;12.90;19.70
6486;DHT22;3276;48.490;9.222;2023-07-22T01:02:05;12.90;19.80
6486;DHT22;3276;48.490;9.222;2023-07-22T01:04:33;12.90;19.80
6486;DHT22;3276;48.490;9.222;2023-07-22T01:06:59;12.90;20.30
6486;DHT22;3276;48.490;9.222;2023-07-22T01:09:25;12.90;20.30
6486;DHT22;3276;48.490;9.222;2023-07-22T01:11:51;12.80;20.30
6486;DHT22;3276;48.490;9.222;2023-07-22T01:14:16;12.80;20.70
6486;DHT22;3276;48.490;9.222;2023-07-22T01:16:42;12.80;20.30
6486;DHT22;3276;48.490;9.222;2023-07-22T01:19:09;12.70;20.60
6486;DHT22;3276;48.490;9.222;2023-07-22T01:21:36;12.70;20.50
6486;DHT22;3276;48.490;9.222;2023-07-22T01:24:02;12.80;20.50
6486;DHT22;3276;48.490;9.222;2023-07-22T01:26:28;12.70;20.30
6486;DHT22;3276;48.490;9.222;2023-07-22T01:29:02;12.70;20.90
6486;DHT22;3276;48.490;9.222;2023-07-22T01:31:28;12.70;20.90
6486;DHT22;3276;48.490;9.222;2023-07-22T01:33:53;12.70;21.00
6486;DHT22;3276;48.490;9.222;2023-07-22T01:36:19;12.70;20.90
6486;DHT22;3276;48.490;9.222;2023-07-22T01:38:44;12.60;21.30
6486;DHT22;3276;48.490;9.222;2023-07-22T01:41:11;12.70;21.20
6486;DHT22;3276;48.490;9.222;2023-07-22T01:43:36;12.60;21.50
6486;DHT22;3276;48.490;9.222;2023-07-22T01:46:02;12.60;21.50
6486;DHT22;3276;48.490;9.222;2023-07-22T01:48:27;12.60;21.60
6486;DHT22;3276;48.490;9.222;2023-07-22T01:50:53;12.60;21.70
6486;DHT22;3276;48.490;9.222;2023-07-22T01:53:19;12.60;21.70
6486;DHT22;3276;48.490;9.222;2023-07-22T01:55:45;12.60;21.80
6486;DHT22;3276;48.490;9.222;2023-07-22T01:58:11;12.60;21.60
6486;DHT22;3276;48.490;9.222;2023-07-22T02:00:37;12.60;22.00
6486;DHT22;3276;48.490;9.222;2023-07-22T02:03:02;12.50;22.30
6486;DHT22;3276;48.490;9.222;2023-07-22T02:05:29;12.50;22.00
6486;DHT22;3276;48.490;9.222;2023-07-22T02:07:56;12.50;22.00
6486;DHT22;3276;48.490;9.222;2023-07-22T02:10:21;12.50;22.50
6486;DHT22;3276;48.490;9.222;2023-07-22T02:12:47;12.40;23.00
6486;DHT22;3276;48.490;9.222;2023-07-22T02:15:12;12.40;23.00
6486;DHT22;3276;48.490;9.222;2023-07-22T02:17:38;12.40;22.90
6486;DHT22;3276;48.490;9.222;2023-07-22T02:20:04;12.40;23.00
6486;DHT22;3276;48.490;9.222;2023-07-22T02:22:30;12.50;23.10
6486;DHT22;3276;48.490;9.222;2023-07-22T02:24:55;12.40;22.90
6486;DHT22;3276;48.490;9.222;2023-07-22T02:27:21;12.40;23.20
6486;DHT22;3276;48.490;9.222;2023-07-22T02:29:46;12.40;23.00
6486;DHT22;3276;48.490;9.222;2023-07-22T02:32:12;12.40;22.90
6486;DHT22;3276;48.490;9.222;2023-07-22T02:34:38;12.40;23.40
6486;DHT22;3276;48.490;9.222;2023-07-22T02:37:04;12.40;23.80
6486;DHT22;3276;48.490;9.222;2023-07-22T02:39:30;12.30;23.70
6486;DHT22;3276;48.490;9.222;2023-07-22T02:41:55;12.30;24.10
6486;DHT22;3276;48.490;9.222;2023-07-22T02:44:21;12.30;24.20
6486;DHT22;3276;48.490;9.222;2023-07-22T02:46:46;12.20;24.10
6486;DHT22;3276;48.490;9.222;2023-07-22T02:49:12;12.20;24.10
6486;DHT22;3276;48.490;9.222;2023-07-22T02:51:37;12.20;24.10
6486;DHT22;3276;48.490;9.222;2023-07-22T02:54:03;12.20;24.40
6486;DHT22;3276;48.490;9.222;2023-07-22T02:56:29;12.10;24.60
6486;DHT22;3276;48.490;9.222;2023-07-22T02:58:54;12.10;25.40
6486;DHT22;3276;48.490;9.222;2023-07-22T03:01:20;12.10;25.50
6486;DHT22;3276;48.490;9.222;2023-07-22T03:03:45;12.10;25.40
6486;DHT22;3276;48.490;9.222;2023-07-22T03:06:11;12.00;25.60
6486;DHT22;3276;48.490;9.222;2023-07-22T03:08:36;12.00;25.90
6486;DHT22;3276;48.490;9.222;2023-07-22T03:11:02;11.90;26.80
6486;DHT22;3276;48.490;9.222;2023-07-22T03:13:29;11.90;26.50
6486;DHT22;3276;48.490;9.222;2023-07-22T03:15:55;11.90;26.80
6486;DHT22;3276;48.490;9.222;2023-07-22T03:18:21;11.80;27.00
6486;DHT22;3276;48.490;9.222;2023-07-22T03:20:46;11.80;27.10
6486;DHT22;3276;48.490;9.222;2023-07-22T03:23:12;11.80;28.00
6486;DHT22;3276;48.490;9.222;2023-07-22T03:25:37;11.80;27.50
6486;DHT22;3276;48.490;9.222;2023-07-22T03:28:04;11.70;27.90
6486;DHT22;3276;48.490;9.222;2023-07-22T03:30:30;11.70;27.60
6486;DHT22;3276;48.490;9.222;2023-07-22T03:32:56;11.70;27.90
6486;DHT22;3276;48.490;9.222;2023-07-22T03:35:22;11.60;27.80
6486;DHT22;3276;48.490;9.222;2023-07-22T03:37:48;11.60;27.80
6486;DHT22;3276;48.490;9.222;2023-07-22T03:40:13;11.60;27.80
6486;DHT22;3276;48.490;9.222;2023-07-22T03:42:49;11.70;27.70
6486;DHT22;3276;48.490;9.222;2023-07-22T03:45:15;11.60;27.70
6486;DHT22;3276;48.490;9.222;2023-07-22T03:47:43;11.60;27.10
6486;DHT22;3276;48.490;9.222;2023-07-22T03:50:09;11.60;27.80
6486;DHT22;3276;48.490;9.222;2023-07-22T03:52:34;11.50;27.80
6486;DHT22;3276;48.490;9.222;2023-07-22T03:55:00;11.50;28.60
6486;DHT22;3276;48.490;9.222;2023-07-22T03:57:29;11.50;29.00
6486;DHT22;3276;48.490;9.222;2023-07-22T03:59:55;11.50;27.90
6486;DHT22;3276;48.490;9.222;2023-07-22T04:02:21;11.50;28.80
6486;DHT22;3276;48.490;9.222;2023-07-22T04:04:47;11.60;28.10
6486;DHT22;3276;48.490;9.222;2023-07-22T04:07:12;11.60;27.90
6486;DHT22;3276;48.490;9.222;2023-07-22T04:09:38;11.60;28.10
6486;DHT22;3276;48.490;9.222;2023-07-22T04:12:04;11.60;28.60
6486;DHT22;3276;48.490;9.222;2023-07-22T04:14:30;11.70;27.90
6486;DHT22;3276;48.490;9.222;2023-07-22T04:16:55;11.80;28.00
6486;DHT22;3276;48.490;9.222;2023-07-22T04:19:21;12.00;26.80
6486;DHT22;3276;48.490;9.222;2023-07-22T04:21:46;12.00;26.40
6486;DHT22;3276;48.490;9.222;2023-07-22T04:24:12;12.00;25.70
6486;DHT22;3276;48.490;9.222;2023-07-22T04:26:37;12.10;25.50
6486;DHT22;3276;48.490;9.222;2023-07-22T04:29:03;12.10;25.00
6486;DHT22;3276;48.490;9.222;2023-07-22T04:31:29;12.20;24.10
6486;DHT22;3276;48.490;9.222;2023-07-22T04:33:54;12.30;24.20
6486;DHT22;3276;48.490;9.222;2023-07-22T04:36:20;12.40;24.10
6486;DHT22;3276;48.490;9.222;2023-07-22T04:38:45;12.50;23.20
6486;DHT22;3276;48.490;9.222;2023-07-22T04:41:11;12.50;22.70
6486;DHT22;3276;48.490;9.222;2023-07-22T04:43:36;12.50;22.70
6486;DHT22;3276;48.490;9.222;2023-07-22T04:46:02;12.50;22.40
6486;DHT22;3276;48.490;9.222;2023-07-22T04:48:27;12.60;22.30
6486;DHT22;3276;48.490;9.222;2023-07-22T04:50:53;12.70;22.20
6486;DHT22;3276;48.490;9.222;2023-07-22T04:53:19;12.70;21.90
6486;DHT22;3276;48.490;9.222;2023-07-22T04:55:44;12.70;21.20
6486;DHT22;3276;48.490;9.222;2023-07-22T04:58:10;12.80;20.50
6486;DHT22;3276;48.490;9.222;2023-07-22T05:00:39;12.90;20.40
6486;DHT22;3276;48.490;9.222;2023-07-22T05:03:05;12.90;20.40
6486;DHT22;3276;48.490;9.222;2023-07-22T05:05:31;12.90;20.30
6486;DHT22;3276;48.490;9.222;2023-07-22T05:07:57;13.00;20.40
6486;DHT22;3276;48.490;9.222;2023-07-22T05:10:23;13.00;20.40
6486;DHT22;3276;48.490;9.222;2023-07-22T05:12:48;13.10;20.50
6486;DHT22;3276;48.490;9.222;2023-07-22T05:15:14;13.20;20.60
6486;DHT22;3276;48.490;9.222;2023-07-22T05:17:40;13.40;20.70
6486;DHT22;3276;48.490;9.222;2023-07-22T05:20:06;13.50;19.20
6486;DHT22;3276;48.490;9.222;2023-07-22T05:22:35;13.70;19.10
6486;DHT22;3276;48.490;9.222;2023-07-22T05:25:01;13.90;17.50
6486;DHT22;3276;48.490;9.222;2023-07-22T05:27:27;14.00;16.70
6486;DHT22;3276;48.490;9.222;2023-07-22T05:29:52;14.20;15.90
6486;DHT22;3276;48.490;9.222;2023-07-22T05:32:18;14.40;14.90
6486;DHT22;3276;48.490;9.222;2023-07-22T05:34:43;15.00;13.10
6486;DHT22;3276;48.490;9.222;2023-07-22T05:37:09;17.00;8.70
6486;DHT22;3276;48.490;9.222;2023-07-22T05:39:34;19.60;1.00
6486;DHT22;3276;48.490;9.222;2023-07-22T05:42:00;21.70;1.00
6486;DHT22;3276;48.490;9.222;2023-07-22T05:44:25;23.70;1.00
6486;DHT22;3276;48.490;9.222;2023-07-22T05:46:51;24.90;1.00
6486;DHT22;3276;48.490;9.222;2023-07-22T05:49:16;26.40;1.00
6486;DHT22;3276;48.490;9.222;2023-07-22T05:51:42;27.20;1.00
6486;DHT22;3276;48.490;9.222;2023-07-22T05:54:11;28.30;1.00
6486;DHT22;3276;48.490;9.222;2023-07-22T05:56:36;30.00;1.00
6486;DHT22;3276;48.490;9.222;2023-07-22T05:59:02;31.20;1.00
6486;DHT22;3276;48.490;9.222;2023-07-22T06:01:27;32.50;1.00
6486;DHT22;3276;48.490;9.222;2023-07-22T06:03:53;32.30;1.00
6486;DHT22;3276;48.490;9.222;2023-07-22T06:06:19;33.40;1.00
6486;DHT22;3276;48.490;9.222;2023-07-22T06:08:44;33.80;1.00
6486;DHT22;3276;48.490;9.222;2023-07-22T06:11:10;33.50;1.00
6486;DHT22;3276;48.490;9.222;2023-07-22T06:13:35;34.20;1.00
6486;DHT22;3276;48.490;9.222;2023-07-22T06:16:03;34.80;1.00
6486;DHT22;3276;48.490;9.222;2023-07-22T06:18:29;35.30;1.00
6486;DHT22;3276;48.490;9.222;2023-07-22T06:20:54;33.60;1.00
6486;DHT22;3276;48.490;9.222;2023-07-22T06:23:20;33.90;1.00
6486;DHT22;3276;48.490;9.222;2023-07-22T06:25:46;34.50;1.00
6486;DHT22;3276;48.490;9.222;2023-07-22T06:28:11;34.40;1.00
6486;DHT22;3276;48.490;9.222;2023-07-22T06:30:37;34.20;1.00
6486;DHT22;3276;48.490;9.222;2023-07-22T06:33:02;33.80;1.00
6486;DHT22;3276;48.490;9.222;2023-07-22T06:35:28;35.00;1.00
6486;DHT22;3276;48.490;9.222;2023-07-22T06:37:53;35.50;1.00
6486;DHT22;3276;48.490;9.222;2023-07-22T06:40:19;34.70;1.00
6486;DHT22;3276;48.490;9.222;2023-07-22T06:42:44;34.20;1.00
6486;DHT22;3276;48.490;9.222;2023-07-22T06:45:10;34.50;1.00
6486;DHT22;3276;48.490;9.222;2023-07-22T06:47:36;35.20;1.00
6486;DHT22;3276;48.490;9.222;2023-07-22T06:50:03;35.70;1.00
6486;DHT22;3276;48.490;9.222;2023-07-22T06:52:30;35.50;1.00
6486;DHT22;3276;48.490;9.222;2023-07-22T06:54:55;34.60;1.00
6486;DHT22;3276;48.490;9.222;2023-07-22T06:57:21;34.90;1.00
6486;DHT22;3276;48.490;9.222;2023-07-22T06:59:47;35.40;1.00
6486;DHT22;3276;48.490;9.222;2023-07-22T07:02:12;35.50;1.00
6486;DHT22;3276;48.490;9.222;2023-07-22T07:04:38;36.60;1.00
6486;DHT22;3276;48.490;9.222;2023-07-22T07:07:04;36.90;1.00
6486;DHT22;3276;48.490;9.222;2023-07-22T07:09:29;36.20;1.00
6486;DHT22;3276;48.490;9.222;2023-07-22T07:11:55;35.70;1.00
6486;DHT22;3276;48.490;9.222;2023-07-22T07:14:23;36.50;1.00
6486;DHT22;3276;48.490;9.222;2023-07-22T07:16:49;36.70;1.00
6486;DHT22;3276;48.490;9.222;2023-07-22T07:19:15;36.40;1.00
6486;DHT22;3276;48.490;9.222;2023-07-22T07:21:40;38.00;1.00
6486;DHT22;3276;48.490;9.222;2023-07-22T07:24:06;36.70;1.00
6486;DHT22;3276;48.490;9.222;2023-07-22T07:26:31;36.60;1.00
6486;DHT22;3276;48.490;9.222;2023-07-22T07:28:57;36.60;1.00
6486;DHT22;3276;48.490;9.222;2023-07-22T07:31:22;37.60;1.00
6486;DHT22;3276;48.490;9.222;2023-07-22T07:33:48;36.60;1.00
6486;DHT22;3276;48.490;9.222;2023-07-22T07:36:14;37.10;1.00
6486;DHT22;3276;48.490;9.222;2023-07-22T07:38:40;36.80;1.00
6486;DHT22;3276;48.490;9.222;2023-07-22T07:41:06;37.60;1.00
6486;DHT22;3276;48.490;9.222;2023-07-22T07:43:34;37.10;1.00
6486;DHT22;3276;48.490;9.222;2023-07-22T07:46:23;37.70;1.00
6486;DHT22;3276;48.490;9.222;2023-07-22T07:49:06;38.20;1.00
6486;DHT22;3276;48.490;9.222;2023-07-22T07:51:32;37.20;1.00
6486;DHT22;3276;48.490;9.222;2023-07-22T07:53:59;37.70;1.00
6486;DHT22;3276;48.490;9.222;2023-07-22T07:56:32;37.40;1.00
6486;DHT22;3276;48.490;9.222;2023-07-22T07:58:58;37.60;1.00
6486;DHT22;3276;48.490;9.222;2023-07-22T08:01:23;38.60;1.00
6486;DHT22;3276;48.490;9.222;2023-07-22T08:03:49;37.70;1.00
6486;DHT22;3276;48.490;9.222;2023-07-22T08:06:15;37.10;1.00
6486;DHT22;3276;48.490;9.222;2023-07-22T08:08:41;36.90;1.00
6486;DHT22;3276;48.490;9.222;2023-07-22T08:11:08;36.90;1.00
6486;DHT22;3276;48.490;9.222;2023-07-22T08:13:34;36.30;1.00
6486;DHT22;3276;48.490;9.222;2023-07-22T08:16:02;37.00;1.00
6486;DHT22;3276;48.490;9.222;2023-07-22T08:18:28;37.50;1.00
6486;DHT22;3276;48.490;9.222;2023-07-22T08:20:55;36.50;1.00
6486;DHT22;3276;48.490;9.222;2023-07-22T08:23:21;36.80;1.00
6486;DHT22;3276;48.490;9.222;2023-07-22T08:25:47;35.20;1.00
6486;DHT22;3276;48.490;9.222;2023-07-22T08:28:13;35.70;1.00
6486;DHT22;3276;48.490;9.222;2023-07-22T08:30:38;36.60;1.00
6486;DHT22;3276;48.490;9.222;2023-07-22T08:33:06;36.60;1.00
6486;DHT22;3276;48.490;9.222;2023-07-22T08:35:34;37.30;1.00
6486;DHT22;3276;48.490;9.222;2023-07-22T08:38:00;36.70;1.00
6486;DHT22;3276;48.490;9.222;2023-07-22T08:40:27;36.90;1.00
6486;DHT22;3276;48.490;9.222;2023-07-22T08:42:54;37.80;1.00
6486;DHT22;3276;48.490;9.222;2023-07-22T08:45:20;37.60;1.00
6486;DHT22;3276;48.490;9.222;2023-07-22T08:47:47;38.50;1.00
6486;DHT22;3276;48.490;9.222;2023-07-22T08:50:19;40.20;1.00
6486;DHT22;3276;48.490;9.222;2023-07-22T08:52:48;38.30;1.00
6486;DHT22;3276;48.490;9.222;2023-07-22T08:55:14;35.10;1.00
6486;DHT22;3276;48.490;9.222;2023-07-22T08:57:41;33.40;1.00
6486;DHT22;3276;48.490;9.222;2023-07-22T09:00:07;33.30;1.00
6486;DHT22;3276;48.490;9.222;2023-07-22T09:02:35;33.80;1.00
6486;DHT22;3276;48.490;9.222;2023-07-22T09:05:01;36.50;1.00
6486;DHT22;3276;48.490;9.222;2023-07-22T09:07:28;35.90;1.00
6486;DHT22;3276;48.490;9.222;2023-07-22T09:09:57;35.40;1.00
6486;DHT22;3276;48.490;9.222;2023-07-22T09:12:23;35.40;1.00
6486;DHT22;3276;48.490;9.222;2023-07-22T09:14:50;35.20;1.00
6486;DHT22;3276;48.490;9.222;2023-07-22T09:17:16;35.00;1.00
6486;DHT22;3276;48.490;9.222;2023-07-22T09:19:41;33.10;1.00
6486;DHT22;3276;48.490;9.222;2023-07-22T09:22:10;32.10;1.00
6486;DHT22;3276;48.490;9.222;2023-07-22T09:24:35;29.90;1.00
6486;DHT22;3276;48.490;9.222;2023-07-22T09:27:01;28.70;1.00
6486;DHT22;3276;48.490;9.222;2023-07-22T09:29:38;27.70;1.00
6486;DHT22;3276;48.490;9.222;2023-07-22T09:32:05;27.70;1.00
6486;DHT22;3276;48.490;9.222;2023-07-22T09:34:31;27.30;1.00
6486;DHT22;3276;48.490;9.222;2023-07-22T09:36:58;27.00;1.00
6486;DHT22;3276;48.490;9.222;2023-07-22T09:39:25;26.90;1.00
6486;DHT22;3276;48.490;9.222;2023-07-22T09:41:51;26.70;1.00
6486;DHT22;3276;48.490;9.222;2023-07-22T09:44:20;26.40;1.00
6486;DHT22;3276;48.490;9.222;2023-07-22T09:46:49;26.50;1.00
6486;DHT22;3276;48.490;9.222;2023-07-22T09:49:17;26.20;1.00
6486;DHT22;3276;48.490;9.222;2023-07-22T09:51:43;25.80;1.00
6486;DHT22;3276;48.490;9.222;2023-07-22T09:54:09;25.50;1.00
6486;DHT22;3276;48.490;9.222;2023-07-22T09:56:49;25.40;1.00
6486;DHT22;3276;48.490;9.222;2023-07-22T09:59:15;25.60;1.00
6486;DHT22;3276;48.490;9.222;2023-07-22T10:01:43;25.60;1.00
6486;DHT22;3276;48.490;9.222;2023-07-22T10:04:12;26.10;1.00
6486;DHT22;3276;48.490;9.222;2023-07-22T10:06:42;26.40;1.00
6486;DHT22;3276;48.490;9.222;2023-07-22T10:09:11;26.30;1.00
6486;DHT22;3276;48.490;9.222;2023-07-22T10:11:39;26.50;1.00
6486;DHT22;3276;48.490;9.222;2023-07-22T10:14:05;26.40;1.00
6486;DHT22;3276;48.490;9.222;2023-07-22T10:16:31;26.60;1.00
6486;DHT22;3276;48.490;9.222;2023-07-22T10:18:58;26.30;1.00
6486;DHT22;3276;48.490;9.222;2023-07-22T10:21:24;26.00;1.00
6486;DHT22;3276;48.490;9.222;2023-07-22T10:23:51;26.10;1.00
6486;DHT22;3276;48.490;9.222;2023-07-22T10:26:18;25.90;1.00
6486;DHT22;3276;48.490;9.222;2023-07-22T10:28:45;25.90;1.00
6486;DHT22;3276;48.490;9.222;2023-07-22T10:31:12;25.80;1.00
6486;DHT22;3276;48.490;9.222;2023-07-22T10:33:39;25.90;1.00
6486;DHT22;3276;48.490;9.222;2023-07-22T10:36:07;26.30;1.00
6486;DHT22;3276;48.490;9.222;2023-07-22T10:38:37;26.80;1.00
6486;DHT22;3276;48.490;9.222;2023-07-22T10:41:15;27.00;1.00
6486;DHT22;3276;48.490;9.222;2023-07-22T10:43:53;26.90;1.00
6486;DHT22;3276;48.490;9.222;2023-07-22T10:46:31;27.10;1.00
6486;DHT22;3276;48.490;9.222;2023-07-22T10:49:13;27.30;1.00
6486;DHT22;3276;48.490;9.222;2023-07-22T10:51:39;27.50;1.00
6486;DHT22;3276;48.490;9.222;2023-07-22T10:54:31;28.10;1.00
6486;DHT22;3276;48.490;9.222;2023-07-22T10:57:23;28.10;1.00
6486;DHT22;3276;48.490;9.222;2023-07-22T10:59:52;27.60;1.00
6486;DHT22;3276;48.490;9.222;2023-07-22T11:02:28;27.40;1.00
6486;DHT22;3276;48.490;9.222;2023-07-22T11:05:02;27.40;1.00
6486;DHT22;3276;48.490;9.222;2023-07-22T11:07:31;27.40;1.00
6486;DHT22;3276;48.490;9.222;2023-07-22T11:09:57;27.70;1.00
6486;DHT22;3276;48.490;9.222;2023-07-22T11:12:24;28.00;1.00
6486;DHT22;3276;48.490;9.222;2023-07-22T11:14:52;28.20;1.00
6486;DHT22;3276;48.490;9.222;2023-07-22T11:17:27;28.40;1.00
6486;DHT22;3276;48.490;9.222;2023-07-22T11:19:55;27.80;1.00
6486;DHT22;3276;48.490;9.222;2023-07-22T11:22:21;27.80;1.00
6486;DHT22;3276;48.490;9.222;2023-07-22T11:24:47;27.90;1.00
6486;DHT22;3276;48.490;9.222;2023-07-22T11:27:12;27.30;1.00
6486;DHT22;3276;48.490;9.222;2023-07-22T11:29:38;26.80;1.00
6486;DHT22;3276;48.490;9.222;2023-07-22T11:32:05;26.60;1.00
6486;DHT22;3276;48.490;9.222;2023-07-22T11:34:31;26.40;1.00
6486;DHT22;3276;48.490;9.222;2023-07-22T11:36:57;26.30;1.00
6486;DHT22;3276;48.490;9.222;2023-07-22T11:39:25;26.50;1.00
6486;DHT22;3276;48.490;9.222;2023-07-22T11:41:51;26.50;1.00
6486;DHT22;3276;48.490;9.222;2023-07-22T11:44:19;26.70;1.00
6486;DHT22;3276;48.490;9.222;2023-07-22T11:47:00;26.70;1.00
6486;DHT22;3276;48.490;9.222;2023-07-22T11:49:30;26.90;1.00
6486;DHT22;3276;48.490;9.222;2023-07-22T11:54:26;28.20;1.00
6486;DHT22;3276;48.490;9.222;2023-07-22T11:56:53;28.40;1.00
6486;DHT22;3276;48.490;9.222;2023-07-22T11:59:33;28.10;1.00
6486;DHT22;3276;48.490;9.222;2023-07-22T12:02:00;28.00;1.00
6486;DHT22;3276;48.490;9.222;2023-07-22T12:04:26;27.50;1.00
6486;DHT22;3276;48.490;9.222;2023-07-22T12:06:52;27.70;1.00
6486;DHT22;3276;48.490;9.222;2023-07-22T12:09:17;27.60;1.00
6486;DHT22;3276;48.490;9.222;2023-07-22T12:11:43;27.30;1.00
6486;DHT22;3276;48.490;9.222;2023-07-22T12:14:12;27.20;1.00
6486;DHT22;3276;48.490;9.222;2023-07-22T12:16:40;27.50;1.00
6486;DHT22;3276;48.490;9.222;2023-07-22T12:19:09;27.90;1.00
6486;DHT22;3276;48.490;9.222;2023-07-22T12:21:34;28.00;1.00
6486;DHT22;3276;48.490;9.222;2023-07-22T12:24:01;28.20;1.00
6486;DHT22;3276;48.490;9.222;2023-07-22T12:26:27;28.40;1.00
6486;DHT22;3276;48.490;9.222;2023-07-22T12:28:53;28.70;1.00
6486;DHT22;3276;48.490;9.222;2023-07-22T12:31:18;29.00;1.00
6486;DHT22;3276;48.490;9.222;2023-07-22T12:33:44;29.00;1.00
6486;DHT22;3276;48.490;9.222;2023-07-22T12:36:10;28.90;1.00
6486;DHT22;3276;48.490;9.222;2023-07-22T12:38:36;29.00;1.00
6486;DHT22;3276;48.490;9.222;2023-07-22T12:41:01;28.80;1.00
6486;DHT22;3276;48.490;9.222;2023-07-22T12:43:27;28.80;1.00
6486;DHT22;3276;48.490;9.222;2023-07-22T12:45:53;28.60;1.00
6486;DHT22;3276;48.490;9.222;2023-07-22T12:48:19;28.60;1.00
6486;DHT22;3276;48.490;9.222;2023-07-22T12:50:44;27.50;1.00
6486;DHT22;3276;48.490;9.222;2023-07-22T12:53:10;27.70;1.00
6486;DHT22;3276;48.490;9.222;2023-07-22T12:55:36;27.90;1.00
6486;DHT22;3276;48.490;9.222;2023-07-22T12:58:01;28.10;1.00
6486;DHT22;3276;48.490;9.222;2023-07-22T13:00:27;28.00;1.00
6486;DHT22;3276;48.490;9.222;2023-07-22T13:02:53;27.80;1.00
6486;DHT22;3276;48.490;9.222;2023-07-22T13:05:19;27.70;1.00
6486;DHT22;3276;48.490;9.222;2023-07-22T13:07:45;28.10;1.00
6486;DHT22;3276;48.490;9.222;2023-07-22T13:10:10;28.30;1.00
6486;DHT22;3276;48.490;9.222;2023-07-22T13:12:38;28.10;1.00
6486;DHT22;3276;48.490;9.222;2023-07-22T13:15:04;27.80;1.00
6486;DHT22;3276;48.490;9.222;2023-07-22T13:17:31;27.70;1.00
6486;DHT22;3276;48.490;9.222;2023-07-22T13:19:57;27.70;1.00
6486;DHT22;3276;48.490;9.222;2023-07-22T13:22:22;27.90;1.00
6486;DHT22;3276;48.490;9.222;2023-07-22T13:24:48;27.70;1.00
6486;DHT22;3276;48.490;9.222;2023-07-22T13:27:13;27.50;1.00
6486;DHT22;3276;48.490;9.222;2023-07-22T13:29:39;27.80;1.00
6486;DHT22;3276;48.490;9.222;2023-07-22T13:32:05;27.60;1.00
6486;DHT22;3276;48.490;9.222;2023-07-22T13:34:31;27.80;1.00
6486;DHT22;3276;48.490;9.222;2023-07-22T13:36:57;28.20;1.00
6486;DHT22;3276;48.490;9.222;2023-07-22T13:39:22;28.50;1.00
6486;DHT22;3276;48.490;9.222;2023-07-22T13:41:48;28.50;1.00
6486;DHT22;3276;48.490;9.222;2023-07-22T13:44:14;28.60;1.00
6486;DHT22;3276;48.490;9.222;2023-07-22T13:46:39;28.80;1.00
6486;DHT22;3276;48.490;9.222;2023-07-22T13:49:06;28.50;1.00
6486;DHT22;3276;48.490;9.222;2023-07-22T13:51:32;28.40;1.00
6486;DHT22;3276;48.490;9.222;2023-07-22T13:53:57;28.70;1.00
6486;DHT22;3276;48.490;9.222;2023-07-22T13:56:24;28.20;1.00
6486;DHT22;3276;48.490;9.222;2023-07-22T13:58:49;28.20;1.00
6486;DHT22;3276;48.490;9.222;2023-07-22T14:01:15;28.20;1.00
6486;DHT22;3276;48.490;9.222;2023-07-22T14:03:40;28.30;1.00
6486;DHT22;3276;48.490;9.222;2023-07-22T14:06:06;28.10;1.00
6486;DHT22;3276;48.490;9.222;2023-07-22T14:08:31;27.90;1.00
6486;DHT22;3276;48.490;9.222;2023-07-22T14:10:58;27.40;1.00
6486;DHT22;3276;48.490;9.222;2023-07-22T14:13:24;27.00;1.00
6486;DHT22;3276;48.490;9.222;2023-07-22T14:15:49;27.10;1.00
6486;DHT22;3276;48.490;9.222;2023-07-22T14:18:15;27.40;1.00
6486;DHT22;3276;48.490;9.222;2023-07-22T14:20:43;27.80;1.00
6486;DHT22;3276;48.490;9.222;2023-07-22T14:23:09;27.90;1.00
6486;DHT22;3276;48.490;9.222;2023-07-22T14:25:34;28.20;1.00
6486;DHT22;3276;48.490;9.222;2023-07-22T14:28:00;28.50;1.00
6486;DHT22;3276;48.490;9.222;2023-07-22T14:30:25;29.00;1.00
6486;DHT22;3276;48.490;9.222;2023-07-22T14:32:51;28.60;1.00
6486;DHT22;3276;48.490;9.222;2023-07-22T14:35:16;28.80;1.00
6486;DHT22;3276;48.490;9.222;2023-07-22T14:37:42;28.60;1.00
6486;DHT22;3276;48.490;9.222;2023-07-22T14:40:08;28.40;1.00
6486;DHT22;3276;48.490;9.222;2023-07-22T14:42:34;28.30;1.00
6486;DHT22;3276;48.490;9.222;2023-07-22T14:44:59;28.20;1.00
6486;DHT22;3276;48.490;9.222;2023-07-22T14:47:25;28.00;1.00
6486;DHT22;3276;48.490;9.222;2023-07-22T14:49:51;28.60;1.00
6486;DHT22;3276;48.490;9.222;2023-07-22T14:52:17;28.60;1.00
6486;DHT22;3276;48.490;9.222;2023-07-22T14:54:43;28.40;1.00
6486;DHT22;3276;48.490;9.222;2023-07-22T14:57:08;28.10;1.00
6486;DHT22;3276;48.490;9.222;2023-07-22T14:59:34;27.90;1.00
6486;DHT22;3276;48.490;9.222;2023-07-22T15:01:59;27.80;1.00
6486;DHT22;3276;48.490;9.222;2023-07-22T15:04:25;27.40;1.00
6486;DHT22;3276;48.490;9.222;2023-07-22T15:06:51;27.30;1.00
6486;DHT22;3276;48.490;9.222;2023-07-22T15:09:16;27.20;1.00
6486;DHT22;3276;48.490;9.222;2023-07-22T15:11:42;27.40;1.00
6486;DHT22;3276;48.490;9.222;2023-07-22T15:14:07;27.50;1.00
6486;DHT22;3276;48.490;9.222;2023-07-22T15:16:33;27.60;1.00
6486;DHT22;3276;48.490;9.222;2023-07-22T15:18:58;27.60;1.00
6486;DHT22;3276;48.490;9.222;2023-07-22T15:21:24;27.80;1.00
6486;DHT22;3276;48.490;9.222;2023-07-22T15:23:49;27.80;1.00
6486;DHT22;3276;48.490;9.222;2023-07-22T15:26:15;27.80;1.00
6486;DHT22;3276;48.490;9.222;2023-07-22T15:28:41;27.60;1.00
6486;DHT22;3276;48.490;9.222;2023-07-22T15:31:09;27.40;1.00
6486;DHT22;3276;48.490;9.222;2023-07-22T15:33:35;27.50;1.00
6486;DHT22;3276;48.490;9.222;2023-07-22T15:36:02;27.30;1.00
6486;DHT22;3276;48.490;9.222;2023-07-22T15:38:27;27.10;1.00
6486;DHT22;3276;48.490;9.222;2023-07-22T15:40:53;27.00;1.00
6486;DHT22;3276;48.490;9.222;2023-07-22T15:43:19;26.80;1.00
6486;DHT22;3276;48.490;9.222;2023-07-22T15:45:45;26.90;1.00
6486;DHT22;3276;48.490;9.222;2023-07-22T15:48:10;26.70;1.00
6486;DHT22;3276;48.490;9.222;2023-07-22T15:50:36;26.80;1.00
6486;DHT22;3276;48.490;9.222;2023-07-22T15:53:02;26.90;1.00
6486;DHT22;3276;48.490;9.222;2023-07-22T15:55:27;27.10;1.00
6486;DHT22;3276;48.490;9.222;2023-07-22T15:57:53;27.30;1.00
6486;DHT22;3276;48.490;9.222;2023-07-22T16:00:18;27.20;1.00
6486;DHT22;3276;48.490;9.222;2023-07-22T16:02:44;27.40;1.00
6486;DHT22;3276;48.490;9.222;2023-07-22T16:05:09;27.60;1.00
6486;DHT22;3276;48.490;9.222;2023-07-22T16:07:36;27.70;1.00
6486;DHT22;3276;48.490;9.222;2023-07-22T16:10:03;27.70;1.00